Uricky, Kazakhstan
Current Conditions -  °F | °C
As of 6:00 AM on Thursday 29 Jan 2015 (Local Time) from UAUU Reporting Station
Clear Clear  
Wind Chill: -31°   Ceiling: Unl
Heat Index: -13°   Visibility: 6mi
Dew Point: -20°   Wind: 9mph
Humidity: 70%   Direction: 180°S
Pressure: 30.45"   Gusts: NA
Location:  53.32°N, 65.55°E
Report Text: UAUU 290000Z 18004MPS CAVOK M25/M29 Q1031 R15/820260 NOSIG RMKQFE757/1009
Loading
Personal Weather Stations






























Interactive Weather Map New forecast layout! Learn more

10-Day Weather Forecast

Advertisements
Track Severe Weather on mobile